sensor_id;sensor_type;location;lat;lon;timestamp;P1;durP1;ratioP1;P2;durP2;ratioP2
21611;SDS011;47005;52.292;13.452;2023-04-01T00:00:19;6.97;;;1.70;;
21611;SDS011;47005;52.292;13.452;2023-04-01T00:02:45;2.80;;;1.47;;
21611;SDS011;47005;52.292;13.452;2023-04-01T00:05:11;4.60;;;1.50;;
21611;SDS011;47005;52.292;13.452;2023-04-01T00:07:37;3.30;;;1.20;;
21611;SDS011;47005;52.292;13.452;2023-04-01T00:10:05;3.07;;;1.37;;
21611;SDS011;47005;52.292;13.452;2023-04-01T00:12:32;3.13;;;1.37;;
21611;SDS011;47005;52.292;13.452;2023-04-01T00:14:58;4.13;;;1.60;;
21611;SDS011;47005;52.292;13.452;2023-04-01T00:17:24;2.80;;;1.37;;
21611;SDS011;47005;52.292;13.452;2023-04-01T00:19:50;3.00;;;1.30;;
21611;SDS011;47005;52.292;13.452;2023-04-01T00:22:15;2.77;;;1.33;;
21611;SDS011;47005;52.292;13.452;2023-04-01T00:24:41;4.97;;;1.53;;
21611;SDS011;47005;52.292;13.452;2023-04-01T00:27:07;3.77;;;1.77;;
21611;SDS011;47005;52.292;13.452;2023-04-01T00:29:33;2.77;;;1.50;;
21611;SDS011;47005;52.292;13.452;2023-04-01T00:31:59;8.83;;;1.50;;
21611;SDS011;47005;52.292;13.452;2023-04-01T00:34:26;2.63;;;1.40;;
21611;SDS011;47005;52.292;13.452;2023-04-01T00:36:51;3.23;;;1.30;;
21611;SDS011;47005;52.292;13.452;2023-04-01T00:39:20;3.63;;;1.37;;
21611;SDS011;47005;52.292;13.452;2023-04-01T00:41:46;2.60;;;1.60;;
21611;SDS011;47005;52.292;13.452;2023-04-01T00:44:20;1.87;;;1.10;;
21611;SDS011;47005;52.292;13.452;2023-04-01T00:46:48;4.13;;;1.37;;
21611;SDS011;47005;52.292;13.452;2023-04-01T00:49:15;2.70;;;1.20;;
21611;SDS011;47005;52.292;13.452;2023-04-01T00:51:42;3.67;;;1.67;;
21611;SDS011;47005;52.292;13.452;2023-04-01T00:54:12;3.17;;;1.40;;
21611;SDS011;47005;52.292;13.452;2023-04-01T00:56:48;2.63;;;1.63;;
21611;SDS011;47005;52.292;13.452;2023-04-01T00:59:21;3.30;;;1.17;;
21611;SDS011;47005;52.292;13.452;2023-04-01T01:01:50;3.73;;;1.83;;
21611;SDS011;47005;52.292;13.452;2023-04-01T01:04:23;3.33;;;1.03;;
21611;SDS011;47005;52.292;13.452;2023-04-01T01:06:56;2.90;;;1.20;;
21611;SDS011;47005;52.292;13.452;2023-04-01T01:12:34;1.50;;;0.90;;
21611;SDS011;47005;52.292;13.452;2023-04-01T01:15:22;3.50;;;1.77;;
21611;SDS011;47005;52.292;13.452;2023-04-01T01:23:57;3.87;;;1.40;;
21611;SDS011;47005;52.292;13.452;2023-04-01T01:37:42;6.70;;;1.47;;
21611;SDS011;47005;52.292;13.452;2023-04-01T01:40:11;3.70;;;1.50;;
21611;SDS011;47005;52.292;13.452;2023-04-01T01:42:38;2.87;;;1.40;;
21611;SDS011;47005;52.292;13.452;2023-04-01T01:45:06;5.43;;;1.57;;
21611;SDS011;47005;52.292;13.452;2023-04-01T01:47:35;5.00;;;1.70;;
21611;SDS011;47005;52.292;13.452;2023-04-01T01:50:01;3.87;;;1.40;;
21611;SDS011;47005;52.292;13.452;2023-04-01T01:52:28;3.93;;;1.47;;
21611;SDS011;47005;52.292;13.452;2023-04-01T01:54:56;8.93;;;1.87;;
21611;SDS011;47005;52.292;13.452;2023-04-01T01:57:23;6.90;;;1.50;;
21611;SDS011;47005;52.292;13.452;2023-04-01T01:59:56;4.47;;;1.40;;
21611;SDS011;47005;52.292;13.452;2023-04-01T02:02:26;2.30;;;1.33;;
21611;SDS011;47005;52.292;13.452;2023-04-01T02:04:56;2.93;;;1.73;;
21611;SDS011;47005;52.292;13.452;2023-04-01T02:07:27;3.30;;;1.90;;
21611;SDS011;47005;52.292;13.452;2023-04-01T02:09:56;2.43;;;1.53;;
21611;SDS011;47005;52.292;13.452;2023-04-01T02:12:22;1.90;;;1.23;;
21611;SDS011;47005;52.292;13.452;2023-04-01T02:15:03;2.57;;;1.63;;
21611;SDS011;47005;52.292;13.452;2023-04-01T02:17:30;4.27;;;1.90;;
21611;SDS011;47005;52.292;13.452;2023-04-01T02:22:27;2.27;;;1.40;;
21611;SDS011;47005;52.292;13.452;2023-04-01T02:25:06;1.50;;;1.10;;
21611;SDS011;47005;52.292;13.452;2023-04-01T02:27:34;1.83;;;1.30;;
21611;SDS011;47005;52.292;13.452;2023-04-01T02:30:01;3.77;;;1.77;;
21611;SDS011;47005;52.292;13.452;2023-04-01T02:32:27;3.60;;;1.60;;
21611;SDS011;47005;52.292;13.452;2023-04-01T02:34:54;5.43;;;1.93;;
21611;SDS011;47005;52.292;13.452;2023-04-01T02:37:21;6.70;;;1.57;;
21611;SDS011;47005;52.292;13.452;2023-04-01T02:39:47;4.17;;;1.60;;
21611;SDS011;47005;52.292;13.452;2023-04-01T02:42:13;8.03;;;2.00;;
21611;SDS011;47005;52.292;13.452;2023-04-01T02:44:39;4.33;;;1.30;;
21611;SDS011;47005;52.292;13.452;2023-04-01T02:47:05;2.53;;;1.33;;
21611;SDS011;47005;52.292;13.452;2023-04-01T02:49:30;3.17;;;1.40;;
21611;SDS011;47005;52.292;13.452;2023-04-01T02:51:56;4.23;;;1.77;;
21611;SDS011;47005;52.292;13.452;2023-04-01T02:54:22;4.63;;;2.27;;
21611;SDS011;47005;52.292;13.452;2023-04-01T02:56:47;5.97;;;2.40;;
21611;SDS011;47005;52.292;13.452;2023-04-01T02:59:13;2.90;;;1.53;;
21611;SDS011;47005;52.292;13.452;2023-04-01T03:01:39;5.23;;;1.43;;
21611;SDS011;47005;52.292;13.452;2023-04-01T03:04:04;8.80;;;2.13;;
21611;SDS011;47005;52.292;13.452;2023-04-01T03:06:30;4.60;;;1.67;;
21611;SDS011;47005;52.292;13.452;2023-04-01T03:08:56;5.10;;;1.47;;
21611;SDS011;47005;52.292;13.452;2023-04-01T03:11:22;2.50;;;1.50;;
21611;SDS011;47005;52.292;13.452;2023-04-01T03:13:47;4.30;;;1.97;;
21611;SDS011;47005;52.292;13.452;2023-04-01T03:16:13;5.07;;;1.83;;
21611;SDS011;47005;52.292;13.452;2023-04-01T03:18:40;3.43;;;1.60;;
21611;SDS011;47005;52.292;13.452;2023-04-01T03:24:03;4.40;;;1.10;;
21611;SDS011;47005;52.292;13.452;2023-04-01T03:26:29;3.23;;;1.57;;
21611;SDS011;47005;52.292;13.452;2023-04-01T03:28:55;6.00;;;1.17;;
21611;SDS011;47005;52.292;13.452;2023-04-01T03:31:21;6.13;;;1.67;;
21611;SDS011;47005;52.292;13.452;2023-04-01T03:33:47;4.70;;;2.23;;
21611;SDS011;47005;52.292;13.452;2023-04-01T03:36:13;2.20;;;0.97;;
21611;SDS011;47005;52.292;13.452;2023-04-01T03:38:39;4.23;;;1.53;;
21611;SDS011;47005;52.292;13.452;2023-04-01T03:41:06;5.30;;;1.93;;
21611;SDS011;47005;52.292;13.452;2023-04-01T03:43:31;3.80;;;1.23;;
21611;SDS011;47005;52.292;13.452;2023-04-01T03:45:57;6.70;;;1.40;;
21611;SDS011;47005;52.292;13.452;2023-04-01T03:48:23;6.73;;;1.57;;
21611;SDS011;47005;52.292;13.452;2023-04-01T03:50:50;10.00;;;1.73;;
21611;SDS011;47005;52.292;13.452;2023-04-01T03:53:16;6.23;;;1.93;;
21611;SDS011;47005;52.292;13.452;2023-04-01T03:55:41;5.13;;;1.70;;
21611;SDS011;47005;52.292;13.452;2023-04-01T03:58:07;5.07;;;1.83;;
21611;SDS011;47005;52.292;13.452;2023-04-01T04:00:33;3.70;;;1.80;;
21611;SDS011;47005;52.292;13.452;2023-04-01T04:02:59;3.23;;;1.60;;
21611;SDS011;47005;52.292;13.452;2023-04-01T04:05:25;4.80;;;1.37;;
21611;SDS011;47005;52.292;13.452;2023-04-01T04:07:52;4.63;;;2.03;;
21611;SDS011;47005;52.292;13.452;2023-04-01T04:10:18;4.50;;;1.47;;
21611;SDS011;47005;52.292;13.452;2023-04-01T04:12:44;4.40;;;1.50;;
21611;SDS011;47005;52.292;13.452;2023-04-01T04:15:11;3.13;;;1.50;;
21611;SDS011;47005;52.292;13.452;2023-04-01T04:17:36;4.90;;;1.30;;
21611;SDS011;47005;52.292;13.452;2023-04-01T04:20:03;6.07;;;1.60;;
21611;SDS011;47005;52.292;13.452;2023-04-01T04:22:29;5.60;;;1.80;;
21611;SDS011;47005;52.292;13.452;2023-04-01T04:24:55;3.30;;;1.87;;
21611;SDS011;47005;52.292;13.452;2023-04-01T04:27:21;3.13;;;1.57;;
21611;SDS011;47005;52.292;13.452;2023-04-01T04:29:46;2.40;;;1.27;;
21611;SDS011;47005;52.292;13.452;2023-04-01T04:32:12;4.00;;;1.43;;
21611;SDS011;47005;52.292;13.452;2023-04-01T04:34:37;6.70;;;1.73;;
21611;SDS011;47005;52.292;13.452;2023-04-01T04:37:03;6.90;;;1.70;;
21611;SDS011;47005;52.292;13.452;2023-04-01T04:39:29;3.13;;;1.40;;
21611;SDS011;47005;52.292;13.452;2023-04-01T04:41:55;5.23;;;1.57;;
21611;SDS011;47005;52.292;13.452;2023-04-01T04:44:20;5.20;;;1.70;;
21611;SDS011;47005;52.292;13.452;2023-04-01T04:46:46;6.47;;;1.47;;
21611;SDS011;47005;52.292;13.452;2023-04-01T04:49:12;4.77;;;1.70;;
21611;SDS011;47005;52.292;13.452;2023-04-01T04:51:38;5.13;;;1.60;;
21611;SDS011;47005;52.292;13.452;2023-04-01T04:54:04;2.17;;;1.30;;
21611;SDS011;47005;52.292;13.452;2023-04-01T04:56:31;5.17;;;1.70;;
21611;SDS011;47005;52.292;13.452;2023-04-01T04:58:57;5.17;;;1.33;;
21611;SDS011;47005;52.292;13.452;2023-04-01T05:01:24;6.17;;;1.80;;
21611;SDS011;47005;52.292;13.452;2023-04-01T05:03:50;6.87;;;1.80;;
21611;SDS011;47005;52.292;13.452;2023-04-01T05:06:16;3.80;;;1.40;;
21611;SDS011;47005;52.292;13.452;2023-04-01T05:08:43;7.37;;;1.30;;
21611;SDS011;47005;52.292;13.452;2023-04-01T05:11:11;4.40;;;1.70;;
21611;SDS011;47005;52.292;13.452;2023-04-01T05:13:38;2.67;;;1.40;;
21611;SDS011;47005;52.292;13.452;2023-04-01T05:16:07;4.87;;;1.50;;
21611;SDS011;47005;52.292;13.452;2023-04-01T05:18:37;2.07;;;1.30;;
21611;SDS011;47005;52.292;13.452;2023-04-01T05:21:03;4.87;;;1.53;;
21611;SDS011;47005;52.292;13.452;2023-04-01T05:23:30;5.07;;;1.93;;
21611;SDS011;47005;52.292;13.452;2023-04-01T05:25:57;6.87;;;1.83;;
21611;SDS011;47005;52.292;13.452;2023-04-01T05:28:23;6.20;;;1.83;;
21611;SDS011;47005;52.292;13.452;2023-04-01T05:30:48;4.90;;;2.03;;
21611;SDS011;47005;52.292;13.452;2023-04-01T05:33:14;6.93;;;1.43;;
21611;SDS011;47005;52.292;13.452;2023-04-01T05:35:40;3.43;;;1.20;;
21611;SDS011;47005;52.292;13.452;2023-04-01T05:38:06;3.23;;;1.47;;
21611;SDS011;47005;52.292;13.452;2023-04-01T05:40:32;3.80;;;1.70;;
21611;SDS011;47005;52.292;13.452;2023-04-01T05:42:58;9.47;;;1.93;;
21611;SDS011;47005;52.292;13.452;2023-04-01T05:45:24;2.73;;;1.27;;
21611;SDS011;47005;52.292;13.452;2023-04-01T05:47:49;2.20;;;1.20;;
21611;SDS011;47005;52.292;13.452;2023-04-01T05:50:15;5.40;;;1.60;;
21611;SDS011;47005;52.292;13.452;2023-04-01T05:52:41;6.33;;;1.63;;
21611;SDS011;47005;52.292;13.452;2023-04-01T05:55:07;6.50;;;1.80;;
21611;SDS011;47005;52.292;13.452;2023-04-01T05:57:33;2.53;;;1.17;;
21611;SDS011;47005;52.292;13.452;2023-04-01T05:59:59;5.90;;;1.40;;
21611;SDS011;47005;52.292;13.452;2023-04-01T06:02:25;6.63;;;1.60;;
21611;SDS011;47005;52.292;13.452;2023-04-01T06:04:54;4.17;;;1.23;;
21611;SDS011;47005;52.292;13.452;2023-04-01T06:07:46;5.33;;;1.70;;
21611;SDS011;47005;52.292;13.452;2023-04-01T06:10:19;5.27;;;1.90;;
21611;SDS011;47005;52.292;13.452;2023-04-01T06:12:57;5.73;;;1.70;;
21611;SDS011;47005;52.292;13.452;2023-04-01T06:15:43;8.33;;;1.83;;
21611;SDS011;47005;52.292;13.452;2023-04-01T06:18:39;5.20;;;1.40;;
21611;SDS011;47005;52.292;13.452;2023-04-01T06:35:00;5.20;;;2.00;;
21611;SDS011;47005;52.292;13.452;2023-04-01T06:46:17;7.87;;;2.30;;
21611;SDS011;47005;52.292;13.452;2023-04-01T06:54:37;5.07;;;1.97;;
21611;SDS011;47005;52.292;13.452;2023-04-01T06:57:18;4.43;;;1.80;;
21611;SDS011;47005;52.292;13.452;2023-04-01T06:59:48;4.87;;;1.57;;
21611;SDS011;47005;52.292;13.452;2023-04-01T07:04:47;7.60;;;2.30;;
21611;SDS011;47005;52.292;13.452;2023-04-01T07:07:33;4.17;;;1.80;;
21611;SDS011;47005;52.292;13.452;2023-04-01T07:10:09;5.20;;;1.90;;
21611;SDS011;47005;52.292;13.452;2023-04-01T07:12:48;4.70;;;2.33;;
21611;SDS011;47005;52.292;13.452;2023-04-01T07:15:21;4.43;;;2.10;;
21611;SDS011;47005;52.292;13.452;2023-04-01T07:18:17;4.37;;;2.43;;
21611;SDS011;47005;52.292;13.452;2023-04-01T07:20:49;4.27;;;1.90;;
21611;SDS011;47005;52.292;13.452;2023-04-01T07:23:20;4.23;;;1.97;;
21611;SDS011;47005;52.292;13.452;2023-04-01T07:25:58;3.17;;;1.60;;
21611;SDS011;47005;52.292;13.452;2023-04-01T07:28:30;3.80;;;2.17;;
21611;SDS011;47005;52.292;13.452;2023-04-01T07:33:38;5.70;;;1.73;;
21611;SDS011;47005;52.292;13.452;2023-04-01T07:36:13;6.05;;;2.00;;
21611;SDS011;47005;52.292;13.452;2023-04-01T07:39:06;6.57;;;1.83;;
21611;SDS011;47005;52.292;13.452;2023-04-01T07:42:38;3.30;;;1.97;;
21611;SDS011;47005;52.292;13.452;2023-04-01T07:44:41;3.40;;;1.65;;
21611;SDS011;47005;52.292;13.452;2023-04-01T07:47:23;1.95;;;1.35;;
21611;SDS011;47005;52.292;13.452;2023-04-01T07:58:37;6.80;;;1.60;;
21611;SDS011;47005;52.292;13.452;2023-04-01T08:01:02;3.43;;;0.93;;
21611;SDS011;47005;52.292;13.452;2023-04-01T08:03:33;5.00;;;1.30;;
21611;SDS011;47005;52.292;13.452;2023-04-01T08:13:44;1.83;;;1.23;;
21611;SDS011;47005;52.292;13.452;2023-04-01T08:16:22;5.30;;;1.63;;
21611;SDS011;47005;52.292;13.452;2023-04-01T08:21:39;7.90;;;1.33;;
21611;SDS011;47005;52.292;13.452;2023-04-01T08:24:13;2.37;;;1.07;;
21611;SDS011;47005;52.292;13.452;2023-04-01T08:27:01;4.67;;;1.60;;
21611;SDS011;47005;52.292;13.452;2023-04-01T08:32:08;2.22;;;0.90;;
21611;SDS011;47005;52.292;13.452;2023-04-01T08:34:43;5.70;;;1.60;;
21611;SDS011;47005;52.292;13.452;2023-04-01T08:37:14;2.92;;;1.30;;
21611;SDS011;47005;52.292;13.452;2023-04-01T08:39:58;4.90;;;1.37;;
21611;SDS011;47005;52.292;13.452;2023-04-01T08:42:52;4.40;;;1.67;;
21611;SDS011;47005;52.292;13.452;2023-04-01T08:56:18;3.27;;;1.37;;
21611;SDS011;47005;52.292;13.452;2023-04-01T08:58:56;2.45;;;1.42;;
21611;SDS011;47005;52.292;13.452;2023-04-01T09:25:26;4.75;;;1.42;;
21611;SDS011;47005;52.292;13.452;2023-04-01T09:30:59;3.30;;;1.48;;
21611;SDS011;47005;52.292;13.452;2023-04-01T09:38:58;4.70;;;1.40;;
21611;SDS011;47005;52.292;13.452;2023-04-01T09:41:39;2.58;;;1.20;;
21611;SDS011;47005;52.292;13.452;2023-04-01T09:44:41;3.80;;;1.25;;
21611;SDS011;47005;52.292;13.452;2023-04-01T09:51:05;4.65;;;1.80;;
21611;SDS011;47005;52.292;13.452;2023-04-01T09:56:08;2.47;;;1.33;;
21611;SDS011;47005;52.292;13.452;2023-04-01T10:07:59;2.50;;;1.38;;
21611;SDS011;47005;52.292;13.452;2023-04-01T10:27:52;0.97;;;0.80;;
21611;SDS011;47005;52.292;13.452;2023-04-01T10:44:33;2.35;;;1.52;;
21611;SDS011;47005;52.292;13.452;2023-04-01T10:50:50;3.17;;;1.65;;
21611;SDS011;47005;52.292;13.452;2023-04-01T10:56:40;2.65;;;1.92;;
21611;SDS011;47005;52.292;13.452;2023-04-01T11:43:27;1.83;;;1.08;;
21611;SDS011;47005;52.292;13.452;2023-04-01T11:46:18;1.17;;;0.90;;
21611;SDS011;47005;52.292;13.452;2023-04-01T11:49:06;3.17;;;2.00;;
21611;SDS011;47005;52.292;13.452;2023-04-01T11:57:26;4.50;;;2.08;;
21611;SDS011;47005;52.292;13.452;2023-04-01T12:00:23;1.80;;;1.40;;
21611;SDS011;47005;52.292;13.452;2023-04-01T12:03:05;2.88;;;1.98;;
21611;SDS011;47005;52.292;13.452;2023-04-01T12:08:33;1.88;;;1.40;;
21611;SDS011;47005;52.292;13.452;2023-04-01T12:11:19;3.35;;;2.35;;
21611;SDS011;47005;52.292;13.452;2023-04-01T12:30:48;3.30;;;2.35;;
21611;SDS011;47005;52.292;13.452;2023-04-01T13:03:11;4.00;;;3.13;;
21611;SDS011;47005;52.292;13.452;2023-04-01T13:05:25;5.57;;;3.90;;
21611;SDS011;47005;52.292;13.452;2023-04-01T13:08:07;5.17;;;3.80;;
21611;SDS011;47005;52.292;13.452;2023-04-01T13:16:29;5.27;;;3.90;;
21611;SDS011;47005;52.292;13.452;2023-04-01T13:22:02;5.67;;;4.10;;
21611;SDS011;47005;52.292;13.452;2023-04-01T13:24:45;8.07;;;4.90;;
21611;SDS011;47005;52.292;13.452;2023-04-01T13:27:39;6.40;;;4.20;;
21611;SDS011;47005;52.292;13.452;2023-04-01T13:43:50;5.00;;;3.53;;
21611;SDS011;47005;52.292;13.452;2023-04-01T13:46:41;5.53;;;3.87;;
21611;SDS011;47005;52.292;13.452;2023-04-01T13:59:57;8.03;;;4.20;;
21611;SDS011;47005;52.292;13.452;2023-04-01T14:30:12;6.83;;;3.37;;
21611;SDS011;47005;52.292;13.452;2023-04-01T14:32:45;4.77;;;2.87;;
21611;SDS011;47005;52.292;13.452;2023-04-01T14:35:38;5.90;;;3.33;;
21611;SDS011;47005;52.292;13.452;2023-04-01T14:38:42;6.37;;;4.07;;
21611;SDS011;47005;52.292;13.452;2023-04-01T14:49:34;3.43;;;2.10;;
21611;SDS011;47005;52.292;13.452;2023-04-01T14:52:44;3.23;;;2.03;;
21611;SDS011;47005;52.292;13.452;2023-04-01T14:55:01;2.93;;;2.10;;
21611;SDS011;47005;52.292;13.452;2023-04-01T14:57:44;3.53;;;2.17;;
21611;SDS011;47005;52.292;13.452;2023-04-01T15:00:24;5.10;;;2.83;;
21611;SDS011;47005;52.292;13.452;2023-04-01T15:03:01;4.33;;;2.57;;
21611;SDS011;47005;52.292;13.452;2023-04-01T15:05:49;3.73;;;2.80;;
21611;SDS011;47005;52.292;13.452;2023-04-01T15:08:33;4.07;;;2.33;;
21611;SDS011;47005;52.292;13.452;2023-04-01T15:11:29;3.13;;;1.73;;
21611;SDS011;47005;52.292;13.452;2023-04-01T15:14:26;3.37;;;2.03;;
21611;SDS011;47005;52.292;13.452;2023-04-01T15:22:42;5.13;;;2.20;;
21611;SDS011;47005;52.292;13.452;2023-04-01T15:39:13;2.27;;;1.17;;
21611;SDS011;47005;52.292;13.452;2023-04-01T15:41:53;2.63;;;1.23;;
21611;SDS011;47005;52.292;13.452;2023-04-01T16:00:26;4.20;;;2.03;;
21611;SDS011;47005;52.292;13.452;2023-04-01T16:22:17;1.90;;;1.40;;
21611;SDS011;47005;52.292;13.452;2023-04-01T16:28:04;2.47;;;1.20;;
21611;SDS011;47005;52.292;13.452;2023-04-01T16:41:34;3.37;;;1.57;;
21611;SDS011;47005;52.292;13.452;2023-04-01T16:44:13;3.93;;;1.47;;
21611;SDS011;47005;52.292;13.452;2023-04-01T16:49:37;3.07;;;2.10;;
21611;SDS011;47005;52.292;13.452;2023-04-01T16:52:29;4.33;;;2.53;;
21611;SDS011;47005;52.292;13.452;2023-04-01T17:01:40;4.67;;;2.30;;
21611;SDS011;47005;52.292;13.452;2023-04-01T17:10:31;3.87;;;2.00;;
21611;SDS011;47005;52.292;13.452;2023-04-01T17:21:15;3.97;;;2.17;;
21611;SDS011;47005;52.292;13.452;2023-04-01T17:23:53;4.17;;;2.23;;
21611;SDS011;47005;52.292;13.452;2023-04-01T17:26:39;5.63;;;2.83;;
21611;SDS011;47005;52.292;13.452;2023-04-01T17:32:05;5.00;;;2.87;;
21611;SDS011;47005;52.292;13.452;2023-04-01T17:34:41;4.73;;;2.00;;
21611;SDS011;47005;52.292;13.452;2023-04-01T17:37:41;3.03;;;1.67;;
21611;SDS011;47005;52.292;13.452;2023-04-01T17:40:26;4.53;;;2.37;;
21611;SDS011;47005;52.292;13.452;2023-04-01T17:45:56;3.63;;;2.30;;
21611;SDS011;47005;52.292;13.452;2023-04-01T17:59:24;4.00;;;2.23;;
21611;SDS011;47005;52.292;13.452;2023-04-01T18:26:50;3.97;;;2.67;;
21611;SDS011;47005;52.292;13.452;2023-04-01T18:29:35;3.77;;;2.63;;
21611;SDS011;47005;52.292;13.452;2023-04-01T18:38:06;7.40;;;3.80;;
21611;SDS011;47005;52.292;13.452;2023-04-01T18:40:42;4.47;;;2.67;;
21611;SDS011;47005;52.292;13.452;2023-04-01T18:45:54;5.67;;;3.10;;
21611;SDS011;47005;52.292;13.452;2023-04-01T18:51:00;5.50;;;2.83;;
21611;SDS011;47005;52.292;13.452;2023-04-01T18:53:37;3.87;;;2.37;;
21611;SDS011;47005;52.292;13.452;2023-04-01T18:56:09;5.27;;;2.83;;
21611;SDS011;47005;52.292;13.452;2023-04-01T18:58:48;4.50;;;2.67;;
21611;SDS011;47005;52.292;13.452;2023-04-01T19:04:17;4.13;;;2.53;;
21611;SDS011;47005;52.292;13.452;2023-04-01T19:06:44;6.87;;;3.07;;
21611;SDS011;47005;52.292;13.452;2023-04-01T19:20:46;3.07;;;2.50;;
21611;SDS011;47005;52.292;13.452;2023-04-01T19:26:30;5.27;;;3.43;;
21611;SDS011;47005;52.292;13.452;2023-04-01T19:29:38;4.10;;;2.60;;
21611;SDS011;47005;52.292;13.452;2023-04-01T19:39:58;5.97;;;3.07;;
21611;SDS011;47005;52.292;13.452;2023-04-01T19:42:35;4.33;;;2.70;;
21611;SDS011;47005;52.292;13.452;2023-04-01T19:45:44;4.43;;;3.20;;
21611;SDS011;47005;52.292;13.452;2023-04-01T19:56:43;3.67;;;2.40;;
21611;SDS011;47005;52.292;13.452;2023-04-01T20:04:44;6.27;;;3.60;;
21611;SDS011;47005;52.292;13.452;2023-04-01T20:07:19;4.93;;;2.97;;
21611;SDS011;47005;52.292;13.452;2023-04-01T20:13:28;3.83;;;2.43;;
21611;SDS011;47005;52.292;13.452;2023-04-01T20:15:41;6.53;;;3.00;;
21611;SDS011;47005;52.292;13.452;2023-04-01T20:18:23;4.73;;;2.83;;
21611;SDS011;47005;52.292;13.452;2023-04-01T20:20:55;4.43;;;3.00;;
21611;SDS011;47005;52.292;13.452;2023-04-01T20:23:26;8.20;;;3.83;;
21611;SDS011;47005;52.292;13.452;2023-04-01T20:25:57;4.83;;;3.50;;
21611;SDS011;47005;52.292;13.452;2023-04-01T20:28:37;6.93;;;3.93;;
21611;SDS011;47005;52.292;13.452;2023-04-01T20:31:18;7.03;;;4.27;;
21611;SDS011;47005;52.292;13.452;2023-04-01T20:36:51;5.00;;;3.93;;
21611;SDS011;47005;52.292;13.452;2023-04-01T20:42:34;6.57;;;4.27;;
21611;SDS011;47005;52.292;13.452;2023-04-01T20:45:14;6.40;;;4.33;;
21611;SDS011;47005;52.292;13.452;2023-04-01T20:47:54;7.13;;;4.77;;
21611;SDS011;47005;52.292;13.452;2023-04-01T20:50:40;7.03;;;4.63;;
21611;SDS011;47005;52.292;13.452;2023-04-01T20:53:16;7.53;;;4.50;;
21611;SDS011;47005;52.292;13.452;2023-04-01T21:01:12;7.90;;;4.47;;
21611;SDS011;47005;52.292;13.452;2023-04-01T21:18:26;8.50;;;4.53;;
21611;SDS011;47005;52.292;13.452;2023-04-01T21:24:23;8.97;;;5.30;;
21611;SDS011;47005;52.292;13.452;2023-04-01T21:35:25;5.90;;;4.93;;
21611;SDS011;47005;52.292;13.452;2023-04-01T21:47:01;7.10;;;4.00;;
21611;SDS011;47005;52.292;13.452;2023-04-01T22:11:59;7.60;;;4.33;;
21611;SDS011;47005;52.292;13.452;2023-04-01T22:14:54;10.93;;;5.20;;
21611;SDS011;47005;52.292;13.452;2023-04-01T22:20:19;7.97;;;4.77;;
21611;SDS011;47005;52.292;13.452;2023-04-01T22:25:24;6.57;;;3.43;;
21611;SDS011;47005;52.292;13.452;2023-04-01T22:28:00;8.80;;;4.43;;
21611;SDS011;47005;52.292;13.452;2023-04-01T22:30:34;9.10;;;4.97;;
21611;SDS011;47005;52.292;13.452;2023-04-01T22:35:59;10.30;;;4.37;;
21611;SDS011;47005;52.292;13.452;2023-04-01T22:41:25;7.53;;;4.40;;
21611;SDS011;47005;52.292;13.452;2023-04-01T22:43:58;8.20;;;3.33;;
21611;SDS011;47005;52.292;13.452;2023-04-01T22:51:53;9.50;;;4.27;;
21611;SDS011;47005;52.292;13.452;2023-04-01T22:57:12;6.57;;;3.57;;
21611;SDS011;47005;52.292;13.452;2023-04-01T22:59:58;6.20;;;3.67;;
21611;SDS011;47005;52.292;13.452;2023-04-01T23:02:35;4.50;;;3.07;;
21611;SDS011;47005;52.292;13.452;2023-04-01T23:05:03;7.10;;;4.20;;
21611;SDS011;47005;52.292;13.452;2023-04-01T23:10:25;8.10;;;2.90;;
21611;SDS011;47005;52.292;13.452;2023-04-01T23:12:55;5.60;;;3.37;;
21611;SDS011;47005;52.292;13.452;2023-04-01T23:15:23;7.07;;;4.30;;
21611;SDS011;47005;52.292;13.452;2023-04-01T23:20:53;4.97;;;2.37;;
21611;SDS011;47005;52.292;13.452;2023-04-01T23:23:26;7.73;;;4.00;;
21611;SDS011;47005;52.292;13.452;2023-04-01T23:30:55;9.97;;;4.20;;
21611;SDS011;47005;52.292;13.452;2023-04-01T23:33:28;9.80;;;4.73;;
21611;SDS011;47005;52.292;13.452;2023-04-01T23:35:56;16.53;;;3.83;;
21611;SDS011;47005;52.292;13.452;2023-04-01T23:38:39;6.27;;;3.60;;
21611;SDS011;47005;52.292;13.452;2023-04-01T23:41:07;5.00;;;3.53;;
21611;SDS011;47005;52.292;13.452;2023-04-01T23:43:43;13.37;;;4.40;;
21611;SDS011;47005;52.292;13.452;2023-04-01T23:46:10;13.97;;;3.40;;
21611;SDS011;47005;52.292;13.452;2023-04-01T23:48:41;5.10;;;2.70;;
21611;SDS011;47005;52.292;13.452;2023-04-01T23:51:28;7.77;;;3.73;;
21611;SDS011;47005;52.292;13.452;2023-04-01T23:54:02;6.63;;;3.87;;
21611;SDS011;47005;52.292;13.452;2023-04-01T23:56:38;21.10;;;4.83;;
21611;SDS011;47005;52.292;13.452;2023-04-01T23:59:14;10.10;;;3.83;;
